High temp

Not for real navigation. The accuracy of this data is not assured See disclaimer for more information



ICAO NAME COUNTRY WIND Kt GUST Kt VIS m TEMP/DEW C BARO METAR
LIMZ Cuneo / Levaldigi Italy 4 0 9999 58/14 29.91 LIMZ 281150Z 02004KT 330V110 CAVOK 58/14 Q1013
OICM 8 0 9999 50/-3 29.47 OICM 281100Z 26008KT CAVOK 50/M03 Q0998
OIAA Abadan Iran 4 0 9999 50/5 29.47 OIAA 281200Z 01004KT CAVOK 50/05 Q0998
OIAW Ahwaz Iran 6 0 9999 49/16 29.44 OIAW 281200Z 27006KT 9999 FEW040 49/16 Q0997
ORMM 12 0 9999 49/-4 29.47 ORMM 281200Z 31012KT CAVOK 49/M04 Q0998 NOSIG

Show more